Time;durP1;ratioP1;P1;durP2;ratioP2;P2;SDS_P1;SDS_P2;PMS_P1;PMS_P2;Temp;Humidity;BMP_temperature;BMP_pressure;BME280_temperature;BME280_humidity;BME280_pressure;Samples;Min_cycle;Max_cycle;Signal;HPM_P1;HPM_P2
2024/01/10 00:00:41;;;;;;;6.10;3.78;;;20.60;26.50;;;;;;4927707;29;20051;-57
2024/01/10 00:03:08;;;;;;;5.65;3.80;;;20.70;26.60;;;;;;4927106;29;20048;-57
2024/01/10 00:05:35;;;;;;;4.53;3.50;;;20.70;26.60;;;;;;4928946;29;20055;-57
2024/01/10 00:08:03;;;;;;;5.45;3.78;;;20.70;26.60;;;;;;4936652;29;20113;-57
2024/01/10 00:10:31;;;;;;;6.95;4.28;;;20.80;26.60;;;;;;4925526;29;20052;-56
2024/01/10 00:12:58;;;;;;;7.03;4.22;;;20.80;26.60;;;;;;4927914;29;20506;-57
2024/01/10 00:15:25;;;;;;;5.53;3.92;;;20.80;26.60;;;;;;4932736;29;20412;-55
2024/01/10 00:17:53;;;;;;;4.72;3.67;;;20.80;26.50;;;;;;4932382;29;20055;-57
2024/01/10 00:20:20;;;;;;;5.18;3.80;;;20.80;26.60;;;;;;4926109;29;20066;-55
2024/01/10 00:22:47;;;;;;;5.25;3.83;;;20.90;26.60;;;;;;4935521;29;20051;-57
2024/01/10 00:25:14;;;;;;;5.35;3.80;;;20.90;26.70;;;;;;4929842;29;20051;-57
2024/01/10 00:27:43;;;;;;;4.80;3.67;;;21.00;26.70;;;;;;4932713;29;20407;-57
2024/01/10 00:30:10;;;;;;;5.43;3.88;;;21.00;26.70;;;;;;4925401;29;20052;-57
2024/01/10 00:32:38;;;;;;;6.65;3.78;;;21.00;26.70;;;;;;4932222;29;20403;-56
2024/01/10 00:35:05;;;;;;;5.57;3.80;;;21.10;26.60;;;;;;4928780;29;20055;-56
2024/01/10 00:37:32;;;;;;;6.25;3.97;;;21.10;26.70;;;;;;4930650;29;20409;-57
2024/01/10 00:39:59;;;;;;;6.68;4.68;;;21.10;26.50;;;;;;4938661;29;20061;-55
2024/01/10 00:42:26;;;;;;;6.15;4.07;;;21.10;26.40;;;;;;4927393;29;20063;-57
2024/01/10 00:44:55;;;;;;;5.57;3.95;;;21.10;26.40;;;;;;4926087;29;20139;-57
2024/01/10 00:47:22;;;;;;;5.55;4.00;;;21.10;26.30;;;;;;4931203;29;20051;-57
2024/01/10 00:49:49;;;;;;;4.90;3.80;;;21.10;26.20;;;;;;4934459;29;20055;-56
2024/01/10 00:52:17;;;;;;;5.60;4.07;;;21.10;26.20;;;;;;4930967;29;20060;-57
2024/01/10 00:54:45;;;;;;;8.15;4.57;;;21.10;26.20;;;;;;4932052;29;20386;-57
2024/01/10 00:57:14;;;;;;;5.05;3.95;;;21.00;26.20;;;;;;4929984;29;20051;-57
2024/01/10 00:59:41;;;;;;;7.15;3.80;;;21.00;26.30;;;;;;4931102;29;20107;-57
2024/01/10 01:02:10;;;;;;;6.85;4.40;;;21.00;26.30;;;;;;4938055;29;20506;-57
2024/01/10 01:04:38;;;;;;;6.20;4.05;;;21.00;26.40;;;;;;4928557;29;20067;-57
2024/01/10 01:07:05;;;;;;;5.50;3.60;;;21.10;26.50;;;;;;4927852;29;20055;-57
2024/01/10 01:09:32;;;;;;;6.32;4.15;;;21.10;26.50;;;;;;4929214;29;20060;-57
2024/01/10 01:12:06;;;;;;;5.72;4.22;;;21.10;26.50;;;;;;4933825;29;20515;-56
2024/01/10 01:21:34;;;;;;;6.18;4.18;;;21.20;26.30;;;;;;4916173;29;20039;-58
2024/01/10 01:24:03;;;;;;;6.18;4.35;;;21.20;26.20;;;;;;4930757;29;20056;-56
2024/01/10 01:26:30;;;;;;;7.20;4.53;;;21.20;26.20;;;;;;4931890;29;20082;-57
2024/01/10 01:28:57;;;;;;;5.93;4.18;;;21.20;26.10;;;;;;4934760;29;20055;-56
2024/01/10 01:31:25;;;;;;;6.25;4.35;;;21.10;26.10;;;;;;4926604;29;20059;-58
2024/01/10 01:33:52;;;;;;;7.63;4.80;;;21.10;26.00;;;;;;4930566;29;20122;-58
2024/01/10 01:36:19;;;;;;;18.35;4.72;;;21.10;26.00;;;;;;4929097;29;20052;-60
2024/01/10 01:38:48;;;;;;;9.93;4.25;;;21.10;26.00;;;;;;4933536;29;20410;-58
2024/01/10 01:41:15;;;;;;;13.45;4.68;;;21.00;26.00;;;;;;4934802;29;20058;-56
2024/01/10 01:43:44;;;;;;;13.80;4.70;;;21.10;26.10;;;;;;4933610;29;20051;-59
2024/01/10 01:46:11;;;;;;;12.27;5.07;;;21.00;26.00;;;;;;4929215;29;20056;-59
2024/01/10 01:48:39;;;;;;;12.98;4.90;;;21.00;25.80;;;;;;4930865;29;20066;-56
2024/01/10 01:51:08;;;;;;;10.82;5.50;;;20.90;25.70;;;;;;4930431;29;20409;-60
2024/01/10 01:53:36;;;;;;;10.60;4.83;;;20.90;25.70;;;;;;4887478;29;1354793;-59
2024/01/10 01:56:07;;;;;;;11.85;5.22;;;20.90;25.70;;;;;;4929222;29;20051;-61
2024/01/10 01:58:36;;;;;;;6.95;4.07;;;20.80;25.80;;;;;;4937648;29;20619;-61
2024/01/10 02:01:04;;;;;;;6.10;4.28;;;20.90;26.00;;;;;;4931868;29;20063;-59
2024/01/10 02:03:32;;;;;;;6.60;4.60;;;20.90;26.10;;;;;;4932960;29;20048;-61
2024/01/10 02:06:03;;;;;;;5.85;4.22;;;20.90;26.20;;;;;;4935261;29;20048;-59
2024/01/10 02:08:31;;;;;;;7.60;4.40;;;20.90;26.20;;;;;;4938028;29;20056;-59
2024/01/10 02:10:58;;;;;;;6.93;4.47;;;21.00;26.30;;;;;;4933658;29;20047;-59
2024/01/10 02:13:27;;;;;;;9.35;4.63;;;21.00;26.20;;;;;;4931063;29;20479;-62
2024/01/10 02:15:54;;;;;;;8.18;5.13;;;21.00;26.20;;;;;;4937687;29;20055;-58
2024/01/10 02:18:22;;;;;;;7.30;4.75;;;21.00;26.20;;;;;;4925385;29;20492;-61
2024/01/10 02:20:50;;;;;;;6.07;4.47;;;21.00;26.20;;;;;;4937187;29;20063;-61
2024/01/10 02:23:17;;;;;;;9.48;4.88;;;21.00;26.10;;;;;;4933527;29;20395;-61
2024/01/10 02:25:46;;;;;;;6.72;4.22;;;21.00;26.00;;;;;;4938211;29;20060;-59
2024/01/10 02:28:13;;;;;;;7.03;4.80;;;21.00;26.00;;;;;;4939040;29;20058;-59
2024/01/10 02:30:40;;;;;;;8.63;4.45;;;21.00;26.00;;;;;;4932475;29;20055;-61
2024/01/10 02:33:08;;;;;;;7.50;4.43;;;21.00;25.90;;;;;;4941102;29;20067;-61
2024/01/10 02:35:34;;;;;;;6.95;4.63;;;20.90;25.90;;;;;;4931075;29;20050;-60
2024/01/10 02:38:02;;;;;;;7.55;4.47;;;20.90;25.90;;;;;;4929969;29;20052;-61
2024/01/10 02:40:29;;;;;;;6.93;4.95;;;20.90;25.90;;;;;;4935975;29;20055;-59
2024/01/10 02:42:58;;;;;;;7.82;4.80;;;20.90;25.80;;;;;;4934933;29;20071;-60
2024/01/10 02:45:25;;;;;;;7.43;4.60;;;20.80;25.80;;;;;;4939843;29;20443;-60
2024/01/10 02:47:52;;;;;;;8.30;4.40;;;20.70;25.80;;;;;;4934737;29;20055;-56
2024/01/10 02:50:20;;;;;;;5.38;4.15;;;20.70;25.80;;;;;;4939200;29;20059;-59
2024/01/10 02:52:47;;;;;;;5.97;4.07;;;20.70;25.80;;;;;;4934580;29;20047;-60
2024/01/10 02:55:14;;;;;;;7.13;4.47;;;20.70;25.80;;;;;;4930808;29;20464;-59
2024/01/10 02:57:42;;;;;;;7.70;4.65;;;20.60;25.80;;;;;;4932453;29;20059;-57
2024/01/10 03:00:13;;;;;;;7.05;4.97;;;20.60;25.80;;;;;;4936132;29;20495;-57
2024/01/10 03:02:40;;;;;;;6.40;4.70;;;20.50;25.80;;;;;;4940253;29;20055;-58
2024/01/10 03:05:08;;;;;;;8.63;5.13;;;20.50;25.90;;;;;;4932601;29;20056;-58
2024/01/10 03:07:35;;;;;;;6.65;4.38;;;20.40;25.90;;;;;;4924288;29;20515;-53
2024/01/10 03:10:03;;;;;;;7.68;4.65;;;20.50;26.10;;;;;;4924560;29;20059;-58
2024/01/10 03:12:31;;;;;;;6.20;4.10;;;20.50;26.30;;;;;;4941180;29;20396;-58
2024/01/10 03:14:58;;;;;;;6.38;4.45;;;20.50;26.40;;;;;;4939156;29;20059;-58
2024/01/10 03:17:27;;;;;;;6.93;4.55;;;20.50;26.50;;;;;;4941262;29;20424;-59
2024/01/10 03:19:54;;;;;;;8.23;4.38;;;20.60;26.50;;;;;;4936765;29;20136;-60
2024/01/10 03:22:21;;;;;;;6.28;4.32;;;20.60;26.60;;;;;;4935519;29;20062;-58
2024/01/10 03:24:48;;;;;;;6.28;4.30;;;20.70;26.50;;;;;;4929746;29;20047;-58
2024/01/10 03:27:16;;;;;;;6.88;4.93;;;20.70;26.50;;;;;;4928104;29;20416;-58
2024/01/10 03:29:43;;;;;;;6.78;4.25;;;20.70;26.40;;;;;;4933587;29;20059;-58
2024/01/10 03:32:10;;;;;;;6.75;4.30;;;20.80;26.50;;;;;;4928158;29;22014;-60
2024/01/10 03:34:39;;;;;;;6.95;4.35;;;20.80;26.50;;;;;;4929420;29;20051;-59
2024/01/10 03:37:06;;;;;;;6.10;4.28;;;20.80;26.50;;;;;;4933870;29;20060;-58
2024/01/10 03:39:33;;;;;;;8.60;5.03;;;20.90;26.60;;;;;;4908962;28;20074;-59
2024/01/10 03:42:01;;;;;;;6.03;4.53;;;20.90;26.50;;;;;;4951025;28;20578;-59
2024/01/10 03:44:28;;;;;;;6.93;4.43;;;21.00;26.50;;;;;;4957302;28;20483;-59
2024/01/10 03:46:56;;;;;;;6.35;4.25;;;21.00;26.40;;;;;;4952406;28;20054;-59
2024/01/10 03:49:24;;;;;;;7.57;4.97;;;21.10;26.40;;;;;;4948298;28;20055;-60
2024/01/10 03:51:52;;;;;;;7.70;4.55;;;21.10;26.30;;;;;;4952858;28;20050;-59
2024/01/10 03:54:20;;;;;;;8.82;4.80;;;21.10;26.20;;;;;;4949965;28;20058;-54
2024/01/10 03:56:47;;;;;;;7.15;4.70;;;21.10;26.20;;;;;;4946259;28;20058;-59
2024/01/10 03:59:14;;;;;;;6.68;4.63;;;21.00;26.10;;;;;;4944316;28;20431;-59
2024/01/10 04:01:42;;;;;;;8.32;4.72;;;21.10;26.10;;;;;;4948605;28;20067;-58
2024/01/10 04:04:09;;;;;;;7.35;4.75;;;21.00;26.10;;;;;;4944389;28;20432;-56
2024/01/10 04:06:36;;;;;;;8.07;4.30;;;21.00;26.10;;;;;;4951074;28;20055;-58
2024/01/10 04:09:08;;;;;;;8.52;5.13;;;21.00;26.10;;;;;;4943751;28;20051;-58
2024/01/10 04:11:35;;;;;;;6.65;4.43;;;21.10;26.20;;;;;;4950550;28;20059;-59
2024/01/10 04:14:03;;;;;;;7.13;4.88;;;21.00;26.20;;;;;;4945337;28;20436;-60
2024/01/10 04:16:30;;;;;;;7.40;4.72;;;21.10;26.20;;;;;;4951498;28;20480;-60
2024/01/10 04:18:57;;;;;;;8.05;4.95;;;21.10;26.20;;;;;;4948438;28;20046;-60
2024/01/10 04:21:25;;;;;;;7.55;5.00;;;21.10;26.20;;;;;;4954742;28;20055;-60
2024/01/10 04:23:52;;;;;;;7.05;4.78;;;21.10;26.20;;;;;;4957193;28;20514;-59
2024/01/10 04:26:21;;;;;;;6.63;4.90;;;21.20;26.10;;;;;;4953465;28;20062;-60
2024/01/10 04:28:48;;;;;;;8.23;4.30;;;21.20;26.10;;;;;;4949757;28;20062;-59
2024/01/10 04:31:16;;;;;;;7.13;4.55;;;21.10;26.10;;;;;;4947936;28;20531;-60
2024/01/10 04:33:43;;;;;;;8.77;4.82;;;21.20;26.10;;;;;;4944378;28;20459;-56
2024/01/10 04:36:10;;;;;;;7.88;5.22;;;21.20;26.20;;;;;;4950814;28;20512;-59
2024/01/10 04:38:37;;;;;;;7.43;4.93;;;21.20;26.20;;;;;;4951666;28;20055;-59
2024/01/10 04:41:05;;;;;;;8.20;4.70;;;21.20;26.20;;;;;;4952045;28;20279;-59
2024/01/10 04:43:33;;;;;;;8.15;5.10;;;21.30;26.20;;;;;;4953160;28;20055;-59
2024/01/10 04:46:00;;;;;;;7.65;4.63;;;21.30;26.10;;;;;;4946442;28;20416;-59
2024/01/10 04:48:27;;;;;;;8.68;4.90;;;21.30;26.10;;;;;;4956185;28;20500;-59
2024/01/10 04:50:55;;;;;;;6.43;4.90;;;21.30;26.00;;;;;;4949023;28;20074;-57
2024/01/10 04:53:22;;;;;;;6.72;4.72;;;21.40;26.00;;;;;;4935667;28;20070;-58
2024/01/10 04:55:49;;;;;;;7.85;5.10;;;21.30;25.90;;;;;;4928450;29;20234;-59
2024/01/10 04:58:17;;;;;;;7.53;5.15;;;21.30;25.90;;;;;;4935226;29;20488;-55
2024/01/10 05:00:45;;;;;;;7.07;4.90;;;21.30;25.80;;;;;;4929166;29;20054;-58
2024/01/10 05:03:12;;;;;;;7.13;4.85;;;21.20;25.80;;;;;;4931702;29;20056;-53
2024/01/10 05:05:40;;;;;;;7.57;5.07;;;21.20;25.80;;;;;;4935142;29;20051;-58
2024/01/10 05:08:07;;;;;;;6.40;4.82;;;21.20;25.80;;;;;;4928769;29;20051;-56
2024/01/10 05:10:35;;;;;;;9.23;5.25;;;21.20;25.90;;;;;;4920383;29;20485;-58
2024/01/10 05:13:02;;;;;;;7.68;5.03;;;21.20;25.90;;;;;;4930008;29;20059;-58
2024/01/10 05:15:29;;;;;;;6.75;5.30;;;21.20;26.00;;;;;;4932416;29;20060;-53
2024/01/10 05:17:58;;;;;;;8.18;5.28;;;21.20;26.10;;;;;;4928799;29;20726;-59
2024/01/10 05:20:25;;;;;;;8.13;4.88;;;21.30;26.10;;;;;;4925114;29;20075;-58
2024/01/10 05:22:52;;;;;;;6.50;4.95;;;21.30;26.10;;;;;;4932371;29;20059;-56
2024/01/10 05:25:20;;;;;;;9.02;5.53;;;21.30;26.00;;;;;;4918054;29;20699;-54
2024/01/10 05:27:47;;;;;;;7.30;5.03;;;21.30;26.00;;;;;;4924417;29;20051;-56
2024/01/10 05:30:15;;;;;;;6.57;4.95;;;21.30;25.90;;;;;;4924733;29;20500;-55
2024/01/10 05:32:42;;;;;;;8.10;5.43;;;21.30;25.80;;;;;;4929039;29;20078;-56
2024/01/10 05:35:11;;;;;;;7.35;5.40;;;21.30;25.80;;;;;;4931291;29;20422;-56
2024/01/10 05:41:31;;;;;;;6.57;5.00;;;21.20;25.60;;;;;;4931903;29;20039;-57
2024/01/10 05:43:59;;;;;;;8.23;5.20;;;21.20;25.60;;;;;;4936062;29;20056;-58
2024/01/10 05:46:28;;;;;;;11.45;5.72;;;21.20;25.60;;;;;;4940569;29;20059;-58
2024/01/10 05:48:55;;;;;;;8.73;5.70;;;21.10;25.60;;;;;;4932066;29;20420;-59
2024/01/10 05:51:24;;;;;;;7.72;5.10;;;21.10;25.60;;;;;;4932387;29;20632;-58
2024/01/10 05:53:51;;;;;;;8.30;5.50;;;21.00;25.60;;;;;;4957847;28;20459;-58
2024/01/10 05:56:18;;;;;;;16.25;5.85;;;21.00;25.70;;;;;;4957718;28;20435;-57
2024/01/10 05:58:46;;;;;;;7.25;5.00;;;21.10;25.80;;;;;;4952292;28;20414;-57
2024/01/10 06:01:13;;;;;;;8.40;5.80;;;21.00;25.90;;;;;;4948627;28;20503;-59
2024/01/10 06:03:40;;;;;;;11.02;5.47;;;21.00;26.00;;;;;;4954803;28;20538;-58
2024/01/10 06:06:07;;;;;;;9.50;5.43;;;21.00;26.10;;;;;;4960462;28;20043;-58
2024/01/10 06:08:36;;;;;;;11.20;5.10;;;21.10;26.10;;;;;;4954689;28;20063;-59
2024/01/10 06:11:06;;;;;;;9.90;5.68;;;21.10;26.10;;;;;;4943790;28;20070;-56
2024/01/10 06:13:33;;;;;;;15.80;6.72;;;21.20;26.10;;;;;;4947411;28;20059;-58
2024/01/10 06:16:00;;;;;;;14.50;5.40;;;21.20;26.10;;;;;;4948155;28;20059;-56
2024/01/10 06:18:27;;;;;;;17.60;6.43;;;21.20;26.20;;;;;;4950605;28;20067;-57
2024/01/10 06:20:54;;;;;;;13.93;6.95;;;21.20;26.20;;;;;;4951617;28;20047;-58
2024/01/10 06:23:21;;;;;;;59.90;31.33;;;21.20;25.90;;;;;;4947938;28;20475;-57
2024/01/10 06:25:50;;;;;;;89.18;51.92;;;21.20;25.50;;;;;;4944303;28;20410;-56
2024/01/10 06:28:17;;;;;;;53.97;31.38;;;21.20;25.40;;;;;;4946467;28;20059;-56
2024/01/10 06:30:44;;;;;;;35.72;22.15;;;21.10;25.40;;;;;;4949248;28;20066;-57
2024/01/10 06:33:11;;;;;;;34.92;18.17;;;21.10;25.40;;;;;;4946166;28;20066;-58
2024/01/10 06:35:39;;;;;;;24.42;14.57;;;21.10;25.60;;;;;;4948485;28;20054;-56
2024/01/10 06:38:06;;;;;;;28.67;15.02;;;21.00;25.50;;;;;;4947758;28;20304;-58
2024/01/10 06:40:33;;;;;;;25.08;14.43;;;21.00;25.50;;;;;;4950317;28;20055;-58
2024/01/10 06:43:02;;;;;;;22.30;13.77;;;21.00;25.50;;;;;;4950818;28;20062;-55
2024/01/10 06:45:29;;;;;;;20.30;12.82;;;20.90;25.50;;;;;;4948151;28;20511;-54
2024/01/10 06:47:55;;;;;;;25.42;11.65;;;20.90;25.60;;;;;;4954302;28;20047;-55
2024/01/10 06:50:23;;;;;;;19.00;11.65;;;20.80;25.60;;;;;;4949905;28;20050;-57
2024/01/10 06:52:51;;;;;;;17.75;11.07;;;20.80;25.70;;;;;;4956282;28;20063;-58
2024/01/10 06:55:19;;;;;;;45.33;26.67;;;20.80;25.70;;;;;;4955316;28;20049;-57
2024/01/10 06:57:46;;;;;;;84.53;46.90;;;20.80;25.70;;;;;;4957407;28;20488;-58
2024/01/10 07:00:17;;;;;;;72.20;41.35;;;20.80;25.50;;;;;;4957249;28;20063;-58
2024/01/10 07:02:44;;;;;;;54.17;30.92;;;20.80;25.60;;;;;;4947266;28;20055;-58
2024/01/10 07:05:12;;;;;;;40.83;25.45;;;20.80;25.70;;;;;;4950331;28;20046;-58
2024/01/10 07:07:39;;;;;;;38.67;22.20;;;20.90;25.80;;;;;;4951629;28;20058;-57
2024/01/10 07:10:07;;;;;;;32.25;19.95;;;20.90;25.80;;;;;;4946784;28;20051;-57
2024/01/10 07:12:34;;;;;;;31.45;18.70;;;20.90;25.90;;;;;;4948164;28;20289;-59
2024/01/10 07:15:03;;;;;;;27.92;16.75;;;21.00;26.00;;;;;;4948380;28;20067;-54
2024/01/10 07:17:32;;;;;;;29.67;15.45;;;21.00;26.10;;;;;;4953171;28;20054;-55
2024/01/10 07:20:00;;;;;;;67.57;37.53;;;21.00;26.30;;;;;;4946093;28;20416;-54
2024/01/10 07:22:27;;;;;;;76.65;27.30;;;21.00;26.00;;;;;;4952009;28;20430;-61
2024/01/10 07:24:54;;;;;;;40.17;21.80;;;21.10;26.20;;;;;;4952244;28;20050;-61
2024/01/10 07:27:22;;;;;;;36.75;20.05;;;21.10;26.10;;;;;;4957159;28;20062;-62
2024/01/10 07:29:49;;;;;;;28.15;17.85;;;21.20;26.10;;;;;;4955627;28;20051;-60
2024/01/10 07:32:16;;;;;;;27.10;16.17;;;21.20;26.00;;;;;;4949994;28;20059;-61
2024/01/10 07:34:45;;;;;;;31.52;15.90;;;21.20;25.90;;;;;;4947951;28;20058;-61
2024/01/10 07:37:16;;;;;;;24.17;13.45;;;21.30;25.90;;;;;;4952927;28;20056;-61
2024/01/10 07:39:44;;;;;;;21.70;12.85;;;21.30;25.80;;;;;;4954058;28;20059;-61
2024/01/10 07:42:11;;;;;;;29.83;13.98;;;21.30;25.80;;;;;;4954558;28;20436;-62
2024/01/10 07:44:39;;;;;;;20.30;12.57;;;21.40;25.70;;;;;;4958460;28;20063;-63
2024/01/10 07:47:07;;;;;;;21.50;13.02;;;21.40;25.90;;;;;;4952582;28;20092;-61
2024/01/10 07:49:35;;;;;;;19.58;11.80;;;21.40;25.40;;;;;;4954024;28;20500;-61
2024/01/10 07:52:05;;;;;;;20.90;12.70;;;21.40;25.40;;;;;;4955088;28;20070;-61
2024/01/10 07:54:32;;;;;;;20.95;12.18;;;21.40;25.30;;;;;;4954132;28;20051;-62
2024/01/10 07:57:00;;;;;;;20.75;12.43;;;21.30;25.30;;;;;;4947240;28;20048;-62
2024/01/10 07:59:27;;;;;;;20.05;12.18;;;21.30;25.20;;;;;;4948477;28;20066;-62
2024/01/10 08:01:58;;;;;;;22.90;11.90;;;21.30;25.20;;;;;;4949181;28;20064;-62
2024/01/10 08:04:26;;;;;;;16.83;10.27;;;21.20;25.20;;;;;;4949918;28;20062;-60
2024/01/10 08:06:55;;;;;;;14.95;10.23;;;21.20;25.30;;;;;;4948805;28;20051;-63
2024/01/10 08:09:24;;;;;;;15.05;10.20;;;21.20;25.30;;;;;;4947238;28;20066;-61
2024/01/10 08:11:51;;;;;;;15.60;10.38;;;21.20;25.40;;;;;;4947466;28;20051;-62
2024/01/10 08:14:19;;;;;;;15.35;9.75;;;21.20;25.40;;;;;;4953494;28;20057;-62
2024/01/10 08:16:46;;;;;;;17.65;9.55;;;21.30;25.60;;;;;;4947896;28;20527;-60
2024/01/10 08:19:14;;;;;;;25.92;10.30;;;21.30;25.80;;;;;;4948735;28;20067;-61
2024/01/10 08:21:42;;;;;;;17.83;9.88;;;21.30;25.80;;;;;;4946811;28;20051;-62
2024/01/10 08:24:09;;;;;;;15.85;9.75;;;21.30;25.70;;;;;;4942811;28;20096;-59
2024/01/10 08:26:38;;;;;;;23.25;9.70;;;21.40;25.70;;;;;;4945985;28;20070;-59
2024/01/10 08:29:05;;;;;;;19.98;9.55;;;21.40;25.80;;;;;;4949417;28;20059;-60
2024/01/10 08:31:32;;;;;;;21.65;9.60;;;21.40;25.80;;;;;;4940316;28;20055;-60
2024/01/10 08:34:00;;;;;;;17.88;9.13;;;21.40;25.70;;;;;;4941161;28;20066;-58
2024/01/10 08:36:27;;;;;;;24.00;9.55;;;21.40;25.60;;;;;;4946953;28;20066;-57
2024/01/10 08:38:54;;;;;;;16.48;8.65;;;21.40;25.50;;;;;;4947759;28;20500;-57
2024/01/10 08:41:20;;;;;;;20.88;9.25;;;21.30;25.50;;;;;;4946842;28;20543;-58
2024/01/10 08:43:49;;;;;;;19.60;8.68;;;21.30;25.50;;;;;;4945181;28;20061;-58
2024/01/10 08:46:16;;;;;;;19.83;8.35;;;21.30;25.50;;;;;;4937382;28;20043;-59
2024/01/10 08:48:44;;;;;;;30.23;10.43;;;21.30;25.50;;;;;;4946006;28;20059;-58
2024/01/10 08:51:15;;;;;;;23.17;9.32;;;21.20;24.90;;;;;;4952996;28;20495;-59
2024/01/10 08:53:45;;;;;;;22.23;8.70;;;21.20;24.90;;;;;;4943652;28;20071;-60
2024/01/10 08:56:12;;;;;;;14.68;8.68;;;21.10;25.00;;;;;;4941505;28;20431;-61
2024/01/10 08:58:39;;;;;;;15.77;8.43;;;21.10;25.00;;;;;;4953618;28;20050;-59
2024/01/10 09:01:09;;;;;;;19.58;8.98;;;21.00;25.00;;;;;;4949984;28;20396;-60
2024/01/10 09:03:38;;;;;;;13.60;8.35;;;20.90;25.00;;;;;;4956713;28;20055;-60
2024/01/10 09:06:07;;;;;;;14.93;8.73;;;20.90;25.10;;;;;;4958468;28;20512;-60
2024/01/10 09:08:34;;;;;;;12.05;7.72;;;20.90;25.20;;;;;;4949717;28;20059;-60
2024/01/10 09:11:04;;;;;;;11.50;7.72;;;20.80;25.30;;;;;;4958254;28;20054;-59
2024/01/10 09:13:32;;;;;;;10.00;6.78;;;20.80;25.40;;;;;;4946043;28;20052;-59
2024/01/10 09:16:00;;;;;;;14.80;8.05;;;20.80;25.50;;;;;;4957690;28;20066;-60
2024/01/10 09:18:29;;;;;;;10.57;7.53;;;20.80;25.70;;;;;;4958957;28;20638;-60
2024/01/10 09:20:57;;;;;;;16.48;7.70;;;20.80;25.70;;;;;;4952700;28;20051;-59
2024/01/10 09:23:24;;;;;;;10.48;7.20;;;20.90;25.80;;;;;;4953987;28;20062;-58
2024/01/10 09:25:51;;;;;;;12.07;7.72;;;20.90;25.80;;;;;;4952864;28;20048;-60
2024/01/10 09:28:18;;;;;;;10.25;7.15;;;21.00;25.90;;;;;;4955524;28;20426;-59
2024/01/10 09:30:45;;;;;;;12.15;7.82;;;21.00;25.80;;;;;;4956046;28;20058;-60
2024/01/10 09:33:13;;;;;;;12.27;8.32;;;21.00;25.80;;;;;;4954090;28;21213;-60
2024/01/10 09:35:41;;;;;;;10.88;7.32;;;21.00;25.80;;;;;;4959496;28;20052;-60
2024/01/10 09:38:09;;;;;;;12.48;8.10;;;21.10;25.70;;;;;;4953239;28;20063;-61
2024/01/10 09:40:37;;;;;;;14.80;8.73;;;21.00;25.70;;;;;;4952355;28;20073;-59
2024/01/10 09:43:07;;;;;;;15.25;8.82;;;21.00;25.70;;;;;;4953546;28;20047;-60
2024/01/10 09:45:36;;;;;;;15.35;7.82;;;21.00;25.70;;;;;;4949223;28;20527;-59
2024/01/10 09:48:05;;;;;;;12.70;8.13;;;21.00;25.70;;;;;;4958777;28;20522;-60
2024/01/10 09:50:33;;;;;;;12.10;7.82;;;21.00;25.70;;;;;;4957914;28;20407;-60
2024/01/10 09:53:07;;;;;;;11.65;7.78;;;21.00;25.70;;;;;;4955183;28;20063;-60
2024/01/10 09:55:36;;;;;;;12.70;7.75;;;21.00;25.80;;;;;;4956476;28;20514;-60
2024/01/10 09:58:08;;;;;;;12.18;8.05;;;21.00;25.90;;;;;;4954749;28;20057;-60
2024/01/10 10:00:37;;;;;;;12.27;7.65;;;21.00;25.90;;;;;;4950888;28;20653;-60
2024/01/10 10:03:08;;;;;;;12.27;7.78;;;21.10;26.00;;;;;;4957160;28;20065;-60
2024/01/10 10:05:37;;;;;;;13.10;8.27;;;21.10;26.00;;;;;;4955342;28;20067;-60
2024/01/10 10:08:09;;;;;;;13.43;8.18;;;21.20;26.00;;;;;;4940953;28;20496;-60
2024/01/10 10:10:42;;;;;;;12.38;8.45;;;21.20;25.90;;;;;;4947646;28;20051;-60
2024/01/10 10:13:11;;;;;;;13.63;8.35;;;21.20;25.90;;;;;;4951933;28;20054;-60
2024/01/10 10:15:39;;;;;;;13.52;8.43;;;21.20;25.90;;;;;;4958797;28;20513;-60
2024/01/10 10:18:06;;;;;;;12.82;8.48;;;21.30;26.00;;;;;;4951370;28;20047;-59
2024/01/10 10:20:36;;;;;;;11.98;8.13;;;21.30;26.00;;;;;;4956349;28;20059;-59
2024/01/10 10:23:06;;;;;;;13.00;8.43;;;21.30;26.00;;;;;;4949408;28;20145;-59
2024/01/10 10:25:35;;;;;;;12.48;8.55;;;21.30;26.00;;;;;;4955562;28;20047;-59
2024/01/10 10:28:04;;;;;;;12.63;8.00;;;21.40;25.90;;;;;;4953411;28;20050;-59
2024/01/10 10:30:33;;;;;;;13.70;8.77;;;21.40;25.90;;;;;;4940644;28;20411;-60
2024/01/10 10:33:00;;;;;;;16.40;9.43;;;21.40;25.80;;;;;;4944524;28;20068;-60
2024/01/10 10:35:28;;;;;;;12.82;8.32;;;21.40;25.80;;;;;;4948765;28;20051;-59
2024/01/10 10:37:55;;;;;;;12.73;8.98;;;21.40;25.70;;;;;;4953779;28;20058;-59
2024/01/10 10:40:24;;;;;;;15.95;9.23;;;21.40;25.70;;;;;;4946098;28;20484;-59
2024/01/10 10:42:56;;;;;;;13.77;8.82;;;21.40;25.70;;;;;;4949276;28;20051;-59
2024/01/10 10:45:25;;;;;;;12.70;8.88;;;21.40;25.80;;;;;;4952991;28;20054;-60
2024/01/10 10:47:58;;;;;;;14.57;9.50;;;21.40;25.80;;;;;;4950313;28;20042;-60
2024/01/10 10:50:33;;;;;;;13.50;8.68;;;21.40;25.80;;;;;;4951010;28;20062;-61
2024/01/10 10:53:04;;;;;;;15.13;9.50;;;21.40;25.90;;;;;;4942066;29;20554;-61
2024/01/10 10:55:35;;;;;;;14.15;8.55;;;21.50;25.90;;;;;;4950469;28;20488;-62
2024/01/10 10:58:05;;;;;;;14.75;9.13;;;21.50;25.90;;;;;;4945793;28;20051;-59
2024/01/10 11:00:34;;;;;;;12.88;9.00;;;21.50;25.90;;;;;;4950716;28;20056;-59
2024/01/10 11:03:04;;;;;;;13.75;8.93;;;21.50;25.80;;;;;;4953919;28;20534;-60
2024/01/10 11:05:32;;;;;;;15.63;9.20;;;21.50;25.80;;;;;;4937872;28;20067;-60
2024/01/10 11:08:05;;;;;;;13.02;8.35;;;21.50;25.70;;;;;;4943861;28;20047;-59
2024/01/10 11:10:37;;;;;;;13.65;9.07;;;21.50;25.80;;;;;;4949888;28;20048;-59
2024/01/10 11:13:20;;;;;;;14.73;9.48;;;21.50;25.90;;;;;;4943546;28;20067;-60
2024/01/10 11:16:08;;;;;;;13.73;8.68;;;21.40;25.80;;;;;;4944681;28;20047;-61
2024/01/10 11:18:56;;;;;;;15.15;9.95;;;21.50;25.70;;;;;;4953954;28;20061;-58
2024/01/10 11:21:34;;;;;;;18.05;10.70;;;21.40;25.70;;;;;;4944740;28;20051;-58
2024/01/10 11:24:02;;;;;;;24.88;10.30;;;21.40;25.70;;;;;;4952620;28;20067;-58
2024/01/10 11:26:33;;;;;;;17.55;9.68;;;21.40;25.70;;;;;;4945619;28;20388;-60
2024/01/10 11:29:00;;;;;;;22.83;9.10;;;21.30;25.90;;;;;;4952821;28;20071;-59
2024/01/10 11:31:30;;;;;;;20.65;9.00;;;21.30;26.10;;;;;;4944008;28;20059;-58
2024/01/10 11:33:58;;;;;;;15.88;9.00;;;21.30;26.20;;;;;;4956589;28;20054;-58
2024/01/10 11:36:28;;;;;;;15.13;8.63;;;21.30;26.30;;;;;;4944781;28;20511;-58
2024/01/10 11:39:01;;;;;;;19.30;9.48;;;21.30;26.80;;;;;;4950184;28;20396;-59
2024/01/10 11:41:31;;;;;;;14.70;9.18;;;21.40;26.50;;;;;;4947736;28;20614;-59
2024/01/10 11:44:26;;;;;;;14.20;9.45;;;21.40;26.50;;;;;;4948179;28;20062;-59
2024/01/10 11:46:55;;;;;;;21.05;10.30;;;21.50;26.50;;;;;;4949069;28;20046;-58
2024/01/10 11:49:25;;;;;;;17.58;11.48;;;21.50;26.40;;;;;;4955453;28;20054;-59
2024/01/10 11:51:56;;;;;;;22.08;10.45;;;21.50;26.30;;;;;;4943476;28;20048;-58
2024/01/10 11:54:40;;;;;;;22.58;10.48;;;21.60;26.30;;;;;;4927866;29;20503;-58
2024/01/10 11:57:14;;;;;;;16.00;10.15;;;21.50;26.50;;;;;;4926110;29;20078;-58
2024/01/10 11:59:42;;;;;;;;;;;21.60;26.10;;;;;;4922428;29;20044;-60
2024/01/10 12:02:09;;;;;;;21.15;10.23;;;21.70;26.10;;;;;;4928955;29;19923;-58
2024/01/10 12:04:36;;;;;;;16.55;9.60;;;21.70;25.90;;;;;;4924658;29;20497;-58
2024/01/10 12:07:05;;;;;;;18.50;9.90;;;21.60;25.80;;;;;;4923652;29;20062;-58
2024/01/10 12:09:32;;;;;;;15.55;9.93;;;21.60;25.80;;;;;;4918404;29;20070;-58
2024/01/10 12:12:00;;;;;;;16.42;10.30;;;21.50;25.80;;;;;;4925955;29;20060;-60
2024/01/10 12:14:30;;;;;;;15.98;9.75;;;21.40;25.70;;;;;;4923236;29;20063;-59
2024/01/10 12:16:58;;;;;;;18.73;11.23;;;21.40;25.70;;;;;;4928085;29;20056;-58
2024/01/10 12:19:26;;;;;;;14.27;10.05;;;21.40;25.70;;;;;;4924519;29;20055;-58
2024/01/10 12:21:53;;;;;;;15.50;10.40;;;21.40;25.70;;;;;;4921014;29;20059;-60
2024/01/10 12:24:23;;;;;;;16.27;9.77;;;21.30;25.70;;;;;;4922273;29;20456;-58
2024/01/10 12:26:51;;;;;;;18.27;11.07;;;21.20;25.60;;;;;;4921060;29;20067;-59
2024/01/10 12:29:19;;;;;;;18.48;12.00;;;21.20;25.60;;;;;;4924758;29;20059;-57
2024/01/10 12:31:48;;;;;;;18.25;11.48;;;21.10;25.60;;;;;;4930609;29;20055;-58
2024/01/10 12:34:16;;;;;;;15.40;10.75;;;21.10;25.60;;;;;;4929301;29;20063;-58
2024/01/10 12:36:43;;;;;;;15.95;10.52;;;21.10;25.60;;;;;;4923449;29;20063;-59
2024/01/10 12:39:11;;;;;;;16.90;11.23;;;21.00;25.60;;;;;;4927194;29;20059;-58
2024/01/10 12:41:38;;;;;;;15.13;10.63;;;21.00;25.60;;;;;;4928128;29;20531;-59
2024/01/10 12:44:06;;;;;;;15.48;10.32;;;20.90;25.70;;;;;;4929841;29;20054;-59
2024/01/10 12:46:34;;;;;;;17.02;10.48;;;20.90;25.80;;;;;;4929377;29;20052;-58
2024/01/10 12:49:04;;;;;;;17.13;10.05;;;20.90;25.90;;;;;;4928667;29;20047;-58
2024/01/10 12:51:33;;;;;;;16.10;10.13;;;20.90;26.10;;;;;;4928707;29;20052;-58
2024/01/10 12:54:01;;;;;;;15.48;10.18;;;20.90;26.10;;;;;;4942979;28;20066;-60